sensor_id;sensor_type;location;lat;lon;timestamp;P1;durP1;ratioP1;P2;durP2;ratioP2
65636;SDS011;52327;42.622;23.316;2023-07-13T00:01:46;0.45;;;0.45;;
65636;SDS011;52327;42.622;23.316;2023-07-13T00:04:15;1.02;;;0.75;;
65636;SDS011;52327;42.622;23.316;2023-07-13T00:06:42;1.73;;;1.08;;
65636;SDS011;52327;42.622;23.316;2023-07-13T00:09:11;1.17;;;0.93;;
65636;SDS011;52327;42.622;23.316;2023-07-13T00:11:38;1.00;;;0.63;;
65636;SDS011;52327;42.622;23.316;2023-07-13T00:14:04;3.50;;;0.90;;
65636;SDS011;52327;42.622;23.316;2023-07-13T00:16:29;1.30;;;0.85;;
65636;SDS011;52327;42.622;23.316;2023-07-13T00:18:55;1.25;;;0.93;;
65636;SDS011;52327;42.622;23.316;2023-07-13T00:21:20;1.70;;;1.15;;
65636;SDS011;52327;42.622;23.316;2023-07-13T00:23:46;0.73;;;0.60;;
65636;SDS011;52327;42.622;23.316;2023-07-13T00:26:12;0.80;;;0.80;;
65636;SDS011;52327;42.622;23.316;2023-07-13T00:28:38;0.50;;;0.50;;
65636;SDS011;52327;42.622;23.316;2023-07-13T00:31:04;0.98;;;0.90;;
65636;SDS011;52327;42.622;23.316;2023-07-13T00:33:30;1.20;;;0.88;;
65636;SDS011;52327;42.622;23.316;2023-07-13T00:35:56;1.48;;;1.10;;
65636;SDS011;52327;42.622;23.316;2023-07-13T00:38:22;1.20;;;0.88;;
65636;SDS011;52327;42.622;23.316;2023-07-13T00:40:49;1.48;;;0.70;;
65636;SDS011;52327;42.622;23.316;2023-07-13T00:43:18;0.52;;;0.50;;
65636;SDS011;52327;42.622;23.316;2023-07-13T00:48:11;2.08;;;1.02;;
65636;SDS011;52327;42.622;23.316;2023-07-13T00:50:39;0.70;;;0.60;;
65636;SDS011;52327;42.622;23.316;2023-07-13T00:53:06;1.58;;;0.95;;
65636;SDS011;52327;42.622;23.316;2023-07-13T00:55:32;1.63;;;1.30;;
65636;SDS011;52327;42.622;23.316;2023-07-13T00:57:59;1.15;;;0.90;;
65636;SDS011;52327;42.622;23.316;2023-07-13T01:00:25;2.35;;;1.23;;
65636;SDS011;52327;42.622;23.316;2023-07-13T01:02:58;2.17;;;1.20;;
65636;SDS011;52327;42.622;23.316;2023-07-13T01:05:54;1.40;;;0.93;;
65636;SDS011;52327;42.622;23.316;2023-07-13T01:08:20;1.15;;;0.93;;
65636;SDS011;52327;42.622;23.316;2023-07-13T01:10:58;1.20;;;1.10;;
65636;SDS011;52327;42.622;23.316;2023-07-13T01:13:24;1.20;;;0.63;;
65636;SDS011;52327;42.622;23.316;2023-07-13T01:15:53;1.20;;;0.82;;
65636;SDS011;52327;42.622;23.316;2023-07-13T01:18:22;2.42;;;1.67;;
65636;SDS011;52327;42.622;23.316;2023-07-13T01:23:20;1.08;;;0.98;;
65636;SDS011;52327;42.622;23.316;2023-07-13T01:25:46;2.03;;;1.00;;
65636;SDS011;52327;42.622;23.316;2023-07-13T01:28:12;1.80;;;0.90;;
65636;SDS011;52327;42.622;23.316;2023-07-13T01:30:38;1.60;;;1.17;;
65636;SDS011;52327;42.622;23.316;2023-07-13T01:33:05;3.78;;;0.90;;
65636;SDS011;52327;42.622;23.316;2023-07-13T01:35:44;1.27;;;1.08;;
65636;SDS011;52327;42.622;23.316;2023-07-13T01:38:12;3.08;;;1.23;;
65636;SDS011;52327;42.622;23.316;2023-07-13T01:40:42;1.65;;;0.95;;
65636;SDS011;52327;42.622;23.316;2023-07-13T01:43:08;1.98;;;1.30;;
65636;SDS011;52327;42.622;23.316;2023-07-13T01:45:34;0.93;;;0.90;;
65636;SDS011;52327;42.622;23.316;2023-07-13T01:47:59;1.33;;;1.08;;
65636;SDS011;52327;42.622;23.316;2023-07-13T01:53:34;1.13;;;0.90;;
65636;SDS011;52327;42.622;23.316;2023-07-13T01:56:00;1.48;;;1.02;;
65636;SDS011;52327;42.622;23.316;2023-07-13T01:58:25;1.95;;;1.48;;
65636;SDS011;52327;42.622;23.316;2023-07-13T02:00:51;1.25;;;0.88;;
65636;SDS011;52327;42.622;23.316;2023-07-13T02:03:17;1.77;;;1.20;;
65636;SDS011;52327;42.622;23.316;2023-07-13T02:05:43;1.55;;;1.42;;
65636;SDS011;52327;42.622;23.316;2023-07-13T02:08:10;2.50;;;1.60;;
65636;SDS011;52327;42.622;23.316;2023-07-13T02:10:36;0.90;;;0.88;;
65636;SDS011;52327;42.622;23.316;2023-07-13T02:13:03;1.95;;;1.50;;
65636;SDS011;52327;42.622;23.316;2023-07-13T02:15:30;2.10;;;1.38;;
65636;SDS011;52327;42.622;23.316;2023-07-13T02:17:56;4.13;;;1.50;;
65636;SDS011;52327;42.622;23.316;2023-07-13T02:20:23;2.17;;;1.52;;
65636;SDS011;52327;42.622;23.316;2023-07-13T02:22:49;1.15;;;1.02;;
65636;SDS011;52327;42.622;23.316;2023-07-13T02:25:15;1.60;;;1.23;;
65636;SDS011;52327;42.622;23.316;2023-07-13T02:27:41;1.90;;;1.38;;
65636;SDS011;52327;42.622;23.316;2023-07-13T02:30:06;1.10;;;0.88;;
65636;SDS011;52327;42.622;23.316;2023-07-13T02:32:32;1.35;;;1.08;;
65636;SDS011;52327;42.622;23.316;2023-07-13T02:34:58;1.70;;;1.35;;
65636;SDS011;52327;42.622;23.316;2023-07-13T02:37:24;2.10;;;1.48;;
65636;SDS011;52327;42.622;23.316;2023-07-13T02:39:50;1.25;;;1.15;;
65636;SDS011;52327;42.622;23.316;2023-07-13T02:42:15;2.00;;;1.33;;
65636;SDS011;52327;42.622;23.316;2023-07-13T02:44:41;2.38;;;1.20;;
65636;SDS011;52327;42.622;23.316;2023-07-13T02:47:06;1.77;;;1.20;;
65636;SDS011;52327;42.622;23.316;2023-07-13T02:49:32;2.50;;;1.65;;
65636;SDS011;52327;42.622;23.316;2023-07-13T02:51:57;1.98;;;1.02;;
65636;SDS011;52327;42.622;23.316;2023-07-13T02:54:23;1.67;;;1.27;;
65636;SDS011;52327;42.622;23.316;2023-07-13T02:56:48;2.03;;;1.40;;
65636;SDS011;52327;42.622;23.316;2023-07-13T02:59:14;1.15;;;0.93;;
65636;SDS011;52327;42.622;23.316;2023-07-13T03:01:39;2.50;;;1.30;;
65636;SDS011;52327;42.622;23.316;2023-07-13T03:04:05;0.90;;;0.85;;
65636;SDS011;52327;42.622;23.316;2023-07-13T03:06:31;1.67;;;1.08;;
65636;SDS011;52327;42.622;23.316;2023-07-13T03:08:58;4.32;;;1.17;;
65636;SDS011;52327;42.622;23.316;2023-07-13T03:11:25;2.13;;;1.35;;
65636;SDS011;52327;42.622;23.316;2023-07-13T03:13:51;1.15;;;1.00;;
65636;SDS011;52327;42.622;23.316;2023-07-13T03:16:16;1.67;;;1.10;;
65636;SDS011;52327;42.622;23.316;2023-07-13T03:18:42;1.90;;;0.95;;
65636;SDS011;52327;42.622;23.316;2023-07-13T03:21:08;2.08;;;1.50;;
65636;SDS011;52327;42.622;23.316;2023-07-13T03:23:34;1.20;;;1.02;;
65636;SDS011;52327;42.622;23.316;2023-07-13T03:26:10;4.50;;;1.55;;
65636;SDS011;52327;42.622;23.316;2023-07-13T03:28:38;1.48;;;0.90;;
65636;SDS011;52327;42.622;23.316;2023-07-13T03:31:06;1.45;;;0.88;;
65636;SDS011;52327;42.622;23.316;2023-07-13T03:33:34;2.92;;;1.50;;
65636;SDS011;52327;42.622;23.316;2023-07-13T03:36:00;2.28;;;1.58;;
65636;SDS011;52327;42.622;23.316;2023-07-13T03:38:25;1.20;;;0.90;;
65636;SDS011;52327;42.622;23.316;2023-07-13T03:40:51;2.53;;;1.13;;
65636;SDS011;52327;42.622;23.316;2023-07-13T03:43:20;1.37;;;0.90;;
65636;SDS011;52327;42.622;23.316;2023-07-13T03:45:46;1.17;;;1.05;;
65636;SDS011;52327;42.622;23.316;2023-07-13T03:48:12;1.88;;;1.30;;
65636;SDS011;52327;42.622;23.316;2023-07-13T03:50:37;1.83;;;1.52;;
65636;SDS011;52327;42.622;23.316;2023-07-13T03:53:03;1.73;;;1.20;;
65636;SDS011;52327;42.622;23.316;2023-07-13T03:55:29;2.08;;;1.55;;
65636;SDS011;52327;42.622;23.316;2023-07-13T03:57:58;1.92;;;1.27;;
65636;SDS011;52327;42.622;23.316;2023-07-13T04:00:26;2.22;;;1.05;;
65636;SDS011;52327;42.622;23.316;2023-07-13T04:02:51;2.08;;;1.33;;
65636;SDS011;52327;42.622;23.316;2023-07-13T04:05:17;3.65;;;1.60;;
65636;SDS011;52327;42.622;23.316;2023-07-13T04:07:42;1.88;;;1.17;;
65636;SDS011;52327;42.622;23.316;2023-07-13T04:10:09;1.17;;;1.08;;
65636;SDS011;52327;42.622;23.316;2023-07-13T04:12:34;1.00;;;0.80;;
65636;SDS011;52327;42.622;23.316;2023-07-13T04:15:00;2.45;;;1.23;;
65636;SDS011;52327;42.622;23.316;2023-07-13T04:17:25;5.68;;;1.73;;
65636;SDS011;52327;42.622;23.316;2023-07-13T04:19:51;1.92;;;1.30;;
65636;SDS011;52327;42.622;23.316;2023-07-13T04:22:16;2.25;;;1.65;;
65636;SDS011;52327;42.622;23.316;2023-07-13T04:24:42;1.27;;;0.88;;
65636;SDS011;52327;42.622;23.316;2023-07-13T04:27:07;1.95;;;1.20;;
65636;SDS011;52327;42.622;23.316;2023-07-13T04:29:33;1.50;;;0.95;;
65636;SDS011;52327;42.622;23.316;2023-07-13T04:31:58;2.13;;;1.35;;
65636;SDS011;52327;42.622;23.316;2023-07-13T04:34:24;1.17;;;0.90;;
65636;SDS011;52327;42.622;23.316;2023-07-13T04:36:52;1.90;;;1.30;;
65636;SDS011;52327;42.622;23.316;2023-07-13T04:39:21;1.55;;;1.10;;
65636;SDS011;52327;42.622;23.316;2023-07-13T04:41:47;2.15;;;1.42;;
65636;SDS011;52327;42.622;23.316;2023-07-13T04:44:15;1.52;;;1.13;;
65636;SDS011;52327;42.622;23.316;2023-07-13T04:46:40;2.53;;;1.60;;
65636;SDS011;52327;42.622;23.316;2023-07-13T04:49:14;2.30;;;1.48;;
65636;SDS011;52327;42.622;23.316;2023-07-13T04:51:57;2.80;;;1.48;;
65636;SDS011;52327;42.622;23.316;2023-07-13T04:54:26;2.78;;;1.67;;
65636;SDS011;52327;42.622;23.316;2023-07-13T04:56:51;3.03;;;1.83;;
65636;SDS011;52327;42.622;23.316;2023-07-13T04:59:17;1.92;;;1.33;;
65636;SDS011;52327;42.622;23.316;2023-07-13T05:01:42;3.50;;;1.60;;
65636;SDS011;52327;42.622;23.316;2023-07-13T05:04:08;2.33;;;1.20;;
65636;SDS011;52327;42.622;23.316;2023-07-13T05:06:33;1.45;;;1.20;;
65636;SDS011;52327;42.622;23.316;2023-07-13T05:08:59;1.42;;;1.30;;
65636;SDS011;52327;42.622;23.316;2023-07-13T05:11:24;3.75;;;1.67;;
65636;SDS011;52327;42.622;23.316;2023-07-13T05:13:49;3.33;;;1.70;;
65636;SDS011;52327;42.622;23.316;2023-07-13T05:16:15;2.75;;;2.05;;
65636;SDS011;52327;42.622;23.316;2023-07-13T05:18:41;2.85;;;2.05;;
65636;SDS011;52327;42.622;23.316;2023-07-13T05:21:07;2.10;;;1.83;;
65636;SDS011;52327;42.622;23.316;2023-07-13T05:23:34;3.00;;;1.95;;
65636;SDS011;52327;42.622;23.316;2023-07-13T05:26:01;2.15;;;1.58;;
65636;SDS011;52327;42.622;23.316;2023-07-13T05:28:28;3.00;;;2.17;;
65636;SDS011;52327;42.622;23.316;2023-07-13T05:30:55;8.32;;;3.05;;
65636;SDS011;52327;42.622;23.316;2023-07-13T05:33:21;2.65;;;2.03;;
65636;SDS011;52327;42.622;23.316;2023-07-13T05:35:46;2.13;;;1.58;;
65636;SDS011;52327;42.622;23.316;2023-07-13T05:38:12;3.55;;;2.75;;
65636;SDS011;52327;42.622;23.316;2023-07-13T05:40:38;2.10;;;1.48;;
65636;SDS011;52327;42.622;23.316;2023-07-13T05:43:03;1.33;;;1.23;;
65636;SDS011;52327;42.622;23.316;2023-07-13T05:45:29;2.97;;;2.25;;
65636;SDS011;52327;42.622;23.316;2023-07-13T05:47:54;2.55;;;1.63;;
65636;SDS011;52327;42.622;23.316;2023-07-13T05:50:20;3.97;;;2.05;;
65636;SDS011;52327;42.622;23.316;2023-07-13T05:52:48;3.33;;;2.25;;
65636;SDS011;52327;42.622;23.316;2023-07-13T05:55:13;2.63;;;1.63;;
65636;SDS011;52327;42.622;23.316;2023-07-13T05:57:39;4.47;;;2.17;;
65636;SDS011;52327;42.622;23.316;2023-07-13T06:00:04;1.80;;;1.63;;
65636;SDS011;52327;42.622;23.316;2023-07-13T06:02:31;2.53;;;1.67;;
65636;SDS011;52327;42.622;23.316;2023-07-13T06:04:56;1.70;;;1.33;;
65636;SDS011;52327;42.622;23.316;2023-07-13T06:07:23;3.03;;;2.30;;
65636;SDS011;52327;42.622;23.316;2023-07-13T06:09:48;2.45;;;1.67;;
65636;SDS011;52327;42.622;23.316;2023-07-13T06:12:14;2.40;;;1.60;;
65636;SDS011;52327;42.622;23.316;2023-07-13T06:14:39;1.95;;;1.75;;
65636;SDS011;52327;42.622;23.316;2023-07-13T06:17:05;2.03;;;1.50;;
65636;SDS011;52327;42.622;23.316;2023-07-13T06:19:32;3.95;;;1.60;;
65636;SDS011;52327;42.622;23.316;2023-07-13T06:21:58;2.40;;;1.50;;
65636;SDS011;52327;42.622;23.316;2023-07-13T06:24:24;1.30;;;1.20;;
65636;SDS011;52327;42.622;23.316;2023-07-13T06:26:49;2.15;;;1.55;;
65636;SDS011;52327;42.622;23.316;2023-07-13T06:29:15;2.70;;;1.70;;
65636;SDS011;52327;42.622;23.316;2023-07-13T06:31:41;1.58;;;1.25;;
65636;SDS011;52327;42.622;23.316;2023-07-13T06:37:04;3.00;;;1.63;;
65636;SDS011;52327;42.622;23.316;2023-07-13T06:39:32;2.40;;;1.77;;
65636;SDS011;52327;42.622;23.316;2023-07-13T06:41:59;1.77;;;1.48;;
65636;SDS011;52327;42.622;23.316;2023-07-13T06:44:24;2.17;;;1.80;;
65636;SDS011;52327;42.622;23.316;2023-07-13T06:46:59;1.92;;;1.42;;
65636;SDS011;52327;42.622;23.316;2023-07-13T06:49:24;5.22;;;1.83;;
65636;SDS011;52327;42.622;23.316;2023-07-13T06:51:49;4.80;;;2.20;;
65636;SDS011;52327;42.622;23.316;2023-07-13T06:54:15;2.28;;;1.40;;
65636;SDS011;52327;42.622;23.316;2023-07-13T06:56:40;3.35;;;2.10;;
65636;SDS011;52327;42.622;23.316;2023-07-13T06:59:06;1.80;;;1.40;;
65636;SDS011;52327;42.622;23.316;2023-07-13T07:01:31;2.08;;;1.80;;
65636;SDS011;52327;42.622;23.316;2023-07-13T07:03:57;2.28;;;1.80;;
65636;SDS011;52327;42.622;23.316;2023-07-13T07:06:22;5.80;;;1.88;;
65636;SDS011;52327;42.622;23.316;2023-07-13T07:08:49;2.33;;;1.92;;
65636;SDS011;52327;42.622;23.316;2023-07-13T07:11:20;2.42;;;1.50;;
65636;SDS011;52327;42.622;23.316;2023-07-13T07:13:50;1.88;;;1.67;;
65636;SDS011;52327;42.622;23.316;2023-07-13T07:16:19;2.20;;;2.00;;
65636;SDS011;52327;42.622;23.316;2023-07-13T07:18:45;2.80;;;1.83;;
65636;SDS011;52327;42.622;23.316;2023-07-13T07:21:12;2.35;;;1.70;;
65636;SDS011;52327;42.622;23.316;2023-07-13T07:23:38;3.55;;;2.22;;
65636;SDS011;52327;42.622;23.316;2023-07-13T07:26:03;3.17;;;2.35;;
65636;SDS011;52327;42.622;23.316;2023-07-13T07:28:29;2.40;;;1.70;;
65636;SDS011;52327;42.622;23.316;2023-07-13T07:30:56;3.15;;;2.28;;
65636;SDS011;52327;42.622;23.316;2023-07-13T07:33:23;3.22;;;2.15;;
65636;SDS011;52327;42.622;23.316;2023-07-13T07:35:49;2.80;;;2.10;;
65636;SDS011;52327;42.622;23.316;2023-07-13T07:38:14;3.38;;;2.15;;
65636;SDS011;52327;42.622;23.316;2023-07-13T07:40:40;3.83;;;2.22;;
65636;SDS011;52327;42.622;23.316;2023-07-13T07:43:06;4.15;;;2.13;;
65636;SDS011;52327;42.622;23.316;2023-07-13T07:45:33;3.72;;;2.42;;
65636;SDS011;52327;42.622;23.316;2023-07-13T07:47:58;4.28;;;2.13;;
65636;SDS011;52327;42.622;23.316;2023-07-13T07:50:24;4.43;;;2.72;;
65636;SDS011;52327;42.622;23.316;2023-07-13T07:52:50;2.72;;;1.75;;
65636;SDS011;52327;42.622;23.316;2023-07-13T07:55:16;3.03;;;2.15;;
65636;SDS011;52327;42.622;23.316;2023-07-13T07:57:42;2.88;;;2.10;;
65636;SDS011;52327;42.622;23.316;2023-07-13T08:00:07;2.13;;;1.70;;
65636;SDS011;52327;42.622;23.316;2023-07-13T08:02:33;5.13;;;1.90;;
65636;SDS011;52327;42.622;23.316;2023-07-13T08:04:58;2.33;;;1.77;;
65636;SDS011;52327;42.622;23.316;2023-07-13T08:07:24;1.70;;;1.58;;
65636;SDS011;52327;42.622;23.316;2023-07-13T08:09:52;2.83;;;2.00;;
65636;SDS011;52327;42.622;23.316;2023-07-13T08:12:18;2.38;;;1.80;;
65636;SDS011;52327;42.622;23.316;2023-07-13T08:14:43;3.38;;;2.35;;
65636;SDS011;52327;42.622;23.316;2023-07-13T08:17:09;2.47;;;1.88;;
65636;SDS011;52327;42.622;23.316;2023-07-13T08:19:34;1.73;;;1.40;;
65636;SDS011;52327;42.622;23.316;2023-07-13T08:22:00;3.10;;;2.10;;
65636;SDS011;52327;42.622;23.316;2023-07-13T08:24:25;1.85;;;1.65;;
65636;SDS011;52327;42.622;23.316;2023-07-13T08:26:54;2.60;;;1.75;;
65636;SDS011;52327;42.622;23.316;2023-07-13T08:29:20;4.20;;;2.70;;
65636;SDS011;52327;42.622;23.316;2023-07-13T08:31:45;3.33;;;2.03;;
65636;SDS011;52327;42.622;23.316;2023-07-13T08:34:12;2.13;;;1.80;;
65636;SDS011;52327;42.622;23.316;2023-07-13T08:36:39;2.67;;;2.08;;
65636;SDS011;52327;42.622;23.316;2023-07-13T08:39:05;2.10;;;1.90;;
65636;SDS011;52327;42.622;23.316;2023-07-13T08:41:31;2.55;;;1.92;;
65636;SDS011;52327;42.622;23.316;2023-07-13T08:43:58;1.90;;;1.75;;
65636;SDS011;52327;42.622;23.316;2023-07-13T08:48:56;2.55;;;1.80;;
65636;SDS011;52327;42.622;23.316;2023-07-13T08:54:01;2.78;;;2.10;;
65636;SDS011;52327;42.622;23.316;2023-07-13T08:59:00;2.53;;;1.85;;
65636;SDS011;52327;42.622;23.316;2023-07-13T09:01:36;2.53;;;1.90;;
65636;SDS011;52327;42.622;23.316;2023-07-13T09:04:16;7.55;;;1.65;;
65636;SDS011;52327;42.622;23.316;2023-07-13T09:15:17;1.33;;;1.23;;
65636;SDS011;52327;42.622;23.316;2023-07-13T09:17:56;3.45;;;2.47;;
65636;SDS011;52327;42.622;23.316;2023-07-13T09:20:37;2.20;;;1.95;;
65636;SDS011;52327;42.622;23.316;2023-07-13T09:23:10;1.90;;;1.35;;
65636;SDS011;52327;42.622;23.316;2023-07-13T09:25:40;2.33;;;1.65;;
65636;SDS011;52327;42.622;23.316;2023-07-13T09:31:18;3.95;;;2.67;;
65636;SDS011;52327;42.622;23.316;2023-07-13T09:33:28;3.10;;;2.00;;
65636;SDS011;52327;42.622;23.316;2023-07-13T09:35:58;3.15;;;1.98;;
65636;SDS011;52327;42.622;23.316;2023-07-13T09:38:24;3.08;;;2.25;;
65636;SDS011;52327;42.622;23.316;2023-07-13T09:41:04;4.43;;;2.35;;
65636;SDS011;52327;42.622;23.316;2023-07-13T09:59:33;2.83;;;1.83;;
65636;SDS011;52327;42.622;23.316;2023-07-13T10:04:57;3.47;;;2.40;;
65636;SDS011;52327;42.622;23.316;2023-07-13T10:07:25;3.47;;;2.63;;
65636;SDS011;52327;42.622;23.316;2023-07-13T10:09:54;4.03;;;2.58;;
65636;SDS011;52327;42.622;23.316;2023-07-13T10:12:21;2.80;;;2.00;;
65636;SDS011;52327;42.622;23.316;2023-07-13T10:14:50;4.38;;;2.10;;
65636;SDS011;52327;42.622;23.316;2023-07-13T10:17:20;2.75;;;1.90;;
65636;SDS011;52327;42.622;23.316;2023-07-13T10:19:55;4.03;;;2.42;;
65636;SDS011;52327;42.622;23.316;2023-07-13T10:22:36;3.00;;;2.25;;
65636;SDS011;52327;42.622;23.316;2023-07-13T10:25:23;4.07;;;2.78;;
65636;SDS011;52327;42.622;23.316;2023-07-13T10:27:54;3.60;;;2.10;;
65636;SDS011;52327;42.622;23.316;2023-07-13T10:30:27;3.17;;;1.83;;
65636;SDS011;52327;42.622;23.316;2023-07-13T10:32:58;3.38;;;2.22;;
65636;SDS011;52327;42.622;23.316;2023-07-13T10:35:26;3.10;;;2.05;;
65636;SDS011;52327;42.622;23.316;2023-07-13T10:37:55;5.57;;;2.88;;
65636;SDS011;52327;42.622;23.316;2023-07-13T10:43:33;7.55;;;2.35;;
65636;SDS011;52327;42.622;23.316;2023-07-13T10:46:04;3.83;;;2.60;;
65636;SDS011;52327;42.622;23.316;2023-07-13T10:48:31;3.90;;;2.53;;
65636;SDS011;52327;42.622;23.316;2023-07-13T10:50:59;3.80;;;2.03;;
65636;SDS011;52327;42.622;23.316;2023-07-13T10:53:30;3.45;;;2.58;;
65636;SDS011;52327;42.622;23.316;2023-07-13T10:56:01;3.55;;;2.75;;
65636;SDS011;52327;42.622;23.316;2023-07-13T10:58:35;3.08;;;2.28;;
65636;SDS011;52327;42.622;23.316;2023-07-13T11:03:28;3.13;;;2.20;;
65636;SDS011;52327;42.622;23.316;2023-07-13T11:08:59;3.70;;;2.15;;
65636;SDS011;52327;42.622;23.316;2023-07-13T11:11:43;2.42;;;1.95;;
65636;SDS011;52327;42.622;23.316;2023-07-13T11:17:36;2.95;;;2.33;;
65636;SDS011;52327;42.622;23.316;2023-07-13T11:25:25;2.97;;;2.17;;
65636;SDS011;52327;42.622;23.316;2023-07-13T11:30:32;2.63;;;2.17;;
65636;SDS011;52327;42.622;23.316;2023-07-13T11:33:17;2.83;;;1.92;;
65636;SDS011;52327;42.622;23.316;2023-07-13T11:38:40;3.53;;;2.13;;
65636;SDS011;52327;42.622;23.316;2023-07-13T11:41:28;2.95;;;1.88;;
65636;SDS011;52327;42.622;23.316;2023-07-13T11:44:11;2.63;;;2.25;;
65636;SDS011;52327;42.622;23.316;2023-07-13T11:46:37;3.83;;;2.10;;
65636;SDS011;52327;42.622;23.316;2023-07-13T11:49:04;3.08;;;1.98;;
65636;SDS011;52327;42.622;23.316;2023-07-13T11:51:33;2.92;;;2.20;;
65636;SDS011;52327;42.622;23.316;2023-07-13T11:56:27;3.15;;;2.03;;
65636;SDS011;52327;42.622;23.316;2023-07-13T11:58:55;2.47;;;2.10;;
65636;SDS011;52327;42.622;23.316;2023-07-13T12:01:29;4.72;;;2.60;;
65636;SDS011;52327;42.622;23.316;2023-07-13T12:04:01;3.28;;;2.00;;
65636;SDS011;52327;42.622;23.316;2023-07-13T12:06:31;2.58;;;1.92;;
65636;SDS011;52327;42.622;23.316;2023-07-13T12:09:02;3.03;;;1.80;;
65636;SDS011;52327;42.622;23.316;2023-07-13T12:11:46;4.03;;;1.80;;
65636;SDS011;52327;42.622;23.316;2023-07-13T12:14:15;2.67;;;1.85;;
65636;SDS011;52327;42.622;23.316;2023-07-13T12:16:42;3.10;;;2.25;;
65636;SDS011;52327;42.622;23.316;2023-07-13T12:19:27;3.13;;;1.90;;
65636;SDS011;52327;42.622;23.316;2023-07-13T12:21:57;2.65;;;1.63;;
65636;SDS011;52327;42.622;23.316;2023-07-13T12:24:25;2.60;;;1.83;;
65636;SDS011;52327;42.622;23.316;2023-07-13T12:26:58;3.13;;;1.80;;
65636;SDS011;52327;42.622;23.316;2023-07-13T12:29:32;5.22;;;1.83;;
65636;SDS011;52327;42.622;23.316;2023-07-13T12:31:58;2.15;;;1.85;;
65636;SDS011;52327;42.622;23.316;2023-07-13T12:34:27;2.63;;;1.77;;
65636;SDS011;52327;42.622;23.316;2023-07-13T12:41:47;2.72;;;2.05;;
65636;SDS011;52327;42.622;23.316;2023-07-13T12:44:15;2.75;;;1.70;;
65636;SDS011;52327;42.622;23.316;2023-07-13T12:46:58;2.58;;;2.03;;
65636;SDS011;52327;42.622;23.316;2023-07-13T12:49:30;3.13;;;2.00;;
65636;SDS011;52327;42.622;23.316;2023-07-13T12:52:00;3.97;;;1.92;;
65636;SDS011;52327;42.622;23.316;2023-07-13T12:54:28;2.72;;;2.15;;
65636;SDS011;52327;42.622;23.316;2023-07-13T12:56:55;1.70;;;1.33;;
65636;SDS011;52327;42.622;23.316;2023-07-13T12:59:23;3.67;;;2.50;;
65636;SDS011;52327;42.622;23.316;2023-07-13T13:01:53;3.67;;;2.22;;
65636;SDS011;52327;42.622;23.316;2023-07-13T13:04:19;5.43;;;2.17;;
65636;SDS011;52327;42.622;23.316;2023-07-13T13:06:48;2.53;;;1.90;;
65636;SDS011;52327;42.622;23.316;2023-07-13T13:09:14;2.33;;;1.88;;
65636;SDS011;52327;42.622;23.316;2023-07-13T13:11:43;6.80;;;2.05;;
65636;SDS011;52327;42.622;23.316;2023-07-13T13:14:10;3.30;;;2.17;;
65636;SDS011;52327;42.622;23.316;2023-07-13T13:16:37;2.33;;;1.80;;
65636;SDS011;52327;42.622;23.316;2023-07-13T13:19:12;2.80;;;1.92;;
65636;SDS011;52327;42.622;23.316;2023-07-13T13:21:42;2.55;;;1.83;;
65636;SDS011;52327;42.622;23.316;2023-07-13T13:24:19;6.43;;;2.17;;
65636;SDS011;52327;42.622;23.316;2023-07-13T13:26:46;2.30;;;1.60;;
65636;SDS011;52327;42.622;23.316;2023-07-13T13:29:14;3.10;;;1.98;;
65636;SDS011;52327;42.622;23.316;2023-07-13T13:31:51;1.95;;;1.65;;
65636;SDS011;52327;42.622;23.316;2023-07-13T13:34:17;2.55;;;2.00;;
65636;SDS011;52327;42.622;23.316;2023-07-13T13:36:44;3.13;;;1.83;;
65636;SDS011;52327;42.622;23.316;2023-07-13T13:39:22;3.08;;;1.67;;
65636;SDS011;52327;42.622;23.316;2023-07-13T13:41:50;2.22;;;1.70;;
65636;SDS011;52327;42.622;23.316;2023-07-13T13:44:17;1.90;;;1.70;;
65636;SDS011;52327;42.622;23.316;2023-07-13T13:46:51;3.20;;;2.33;;
65636;SDS011;52327;42.622;23.316;2023-07-13T13:49:21;2.33;;;1.45;;
65636;SDS011;52327;42.622;23.316;2023-07-13T13:52:11;1.95;;;1.77;;
65636;SDS011;52327;42.622;23.316;2023-07-13T13:54:38;2.40;;;1.60;;
65636;SDS011;52327;42.622;23.316;2023-07-13T13:57:03;2.75;;;2.28;;
65636;SDS011;52327;42.622;23.316;2023-07-13T13:59:29;9.18;;;2.30;;
65636;SDS011;52327;42.622;23.316;2023-07-13T14:01:57;3.63;;;1.73;;
65636;SDS011;52327;42.622;23.316;2023-07-13T14:04:27;2.78;;;1.65;;
65636;SDS011;52327;42.622;23.316;2023-07-13T14:06:53;2.97;;;1.77;;
65636;SDS011;52327;42.622;23.316;2023-07-13T14:09:19;3.75;;;1.50;;
65636;SDS011;52327;42.622;23.316;2023-07-13T14:11:45;3.90;;;1.95;;
65636;SDS011;52327;42.622;23.316;2023-07-13T14:14:14;3.37;;;1.70;;
65636;SDS011;52327;42.622;23.316;2023-07-13T14:16:43;2.83;;;1.75;;
65636;SDS011;52327;42.622;23.316;2023-07-13T14:19:12;2.40;;;1.73;;
65636;SDS011;52327;42.622;23.316;2023-07-13T14:21:39;4.35;;;2.08;;
65636;SDS011;52327;42.622;23.316;2023-07-13T14:24:04;2.22;;;1.10;;
65636;SDS011;52327;42.622;23.316;2023-07-13T14:26:31;2.72;;;1.63;;
65636;SDS011;52327;42.622;23.316;2023-07-13T14:29:05;2.58;;;1.23;;
65636;SDS011;52327;42.622;23.316;2023-07-13T14:31:36;2.17;;;1.50;;
65636;SDS011;52327;42.622;23.316;2023-07-13T14:34:02;2.78;;;1.92;;
65636;SDS011;52327;42.622;23.316;2023-07-13T14:36:30;3.25;;;2.35;;
65636;SDS011;52327;42.622;23.316;2023-07-13T14:38:58;3.30;;;1.83;;
65636;SDS011;52327;42.622;23.316;2023-07-13T14:41:25;2.17;;;1.73;;
65636;SDS011;52327;42.622;23.316;2023-07-13T14:43:51;1.83;;;1.40;;
65636;SDS011;52327;42.622;23.316;2023-07-13T14:46:35;3.42;;;1.77;;
65636;SDS011;52327;42.622;23.316;2023-07-13T14:49:04;2.95;;;1.88;;
65636;SDS011;52327;42.622;23.316;2023-07-13T14:54:14;3.42;;;2.13;;
65636;SDS011;52327;42.622;23.316;2023-07-13T14:56:39;3.92;;;2.20;;
65636;SDS011;52327;42.622;23.316;2023-07-13T14:59:05;2.60;;;1.95;;
65636;SDS011;52327;42.622;23.316;2023-07-13T15:01:32;4.63;;;2.10;;
65636;SDS011;52327;42.622;23.316;2023-07-13T15:03:59;3.63;;;1.70;;
65636;SDS011;52327;42.622;23.316;2023-07-13T15:06:25;2.50;;;1.50;;
65636;SDS011;52327;42.622;23.316;2023-07-13T15:08:50;2.60;;;1.75;;
65636;SDS011;52327;42.622;23.316;2023-07-13T15:11:16;3.92;;;1.83;;
65636;SDS011;52327;42.622;23.316;2023-07-13T15:13:42;2.88;;;1.98;;
65636;SDS011;52327;42.622;23.316;2023-07-13T15:16:17;1.83;;;1.50;;
65636;SDS011;52327;42.622;23.316;2023-07-13T15:18:46;4.88;;;1.75;;
65636;SDS011;52327;42.622;23.316;2023-07-13T15:21:13;3.50;;;1.58;;
65636;SDS011;52327;42.622;23.316;2023-07-13T15:23:44;2.33;;;1.65;;
65636;SDS011;52327;42.622;23.316;2023-07-13T15:26:14;2.20;;;1.60;;
65636;SDS011;52327;42.622;23.316;2023-07-13T15:28:42;2.65;;;1.42;;
65636;SDS011;52327;42.622;23.316;2023-07-13T15:31:26;1.33;;;1.08;;
65636;SDS011;52327;42.622;23.316;2023-07-13T15:33:56;1.33;;;1.23;;
65636;SDS011;52327;42.622;23.316;2023-07-13T15:36:23;2.00;;;1.17;;
65636;SDS011;52327;42.622;23.316;2023-07-13T15:38:51;2.20;;;1.48;;
65636;SDS011;52327;42.622;23.316;2023-07-13T15:41:25;1.80;;;1.13;;
65636;SDS011;52327;42.622;23.316;2023-07-13T15:43:53;2.65;;;1.58;;
65636;SDS011;52327;42.622;23.316;2023-07-13T15:46:21;2.15;;;1.33;;
65636;SDS011;52327;42.622;23.316;2023-07-13T15:48:48;1.30;;;0.80;;
65636;SDS011;52327;42.622;23.316;2023-07-13T15:51:25;5.07;;;1.77;;
65636;SDS011;52327;42.622;23.316;2023-07-13T15:53:54;2.13;;;1.40;;
65636;SDS011;52327;42.622;23.316;2023-07-13T15:56:26;3.30;;;1.58;;
65636;SDS011;52327;42.622;23.316;2023-07-13T15:58:54;3.08;;;1.20;;
65636;SDS011;52327;42.622;23.316;2023-07-13T16:01:21;1.58;;;0.98;;